Plainview, New York
Current Conditions -  °F | °C
As of 11:53 AM on Tuesday 27 Jan 2015 (Local Time) from KFRG Reporting Station
Light Snow Light Snow  
Wind Chill: 11°   Ceiling: 5000
Heat Index: 23°   Visibility: 0.75mi
Dew Point: 15°   Wind: 13mph
Humidity: 72%   Direction: 340°NNW
Pressure: 29.65"   Gusts: 24mph
Location:  40.78°N, 73.47°W
Report Text: KFRG 271653Z AUTO 34011G21KT 3/4SM -SN FEW021 OVC050 M05/M09 A2965 RMK AO2 PK WND 33028/1622 SFC VIS 8 SNB29 SLP042 P0000 T10501094 $
Loading
Personal Weather Stations






























Interactive Weather Map New forecast layout! Learn more

10-Day Weather Forecast

Advertisements
Track Severe Weather on mobile